sensor_id;sensor_type;location;lat;lon;timestamp;P1;durP1;ratioP1;P2;durP2;ratioP2
16171;SDS011;8192;53.596;10.166;2024-02-21T00:01:58;55.80;;;36.93;;
16171;SDS011;8192;53.596;10.166;2024-02-21T00:04:25;56.20;;;35.80;;
16171;SDS011;8192;53.596;10.166;2024-02-21T00:06:53;54.57;;;34.73;;
16171;SDS011;8192;53.596;10.166;2024-02-21T00:09:20;54.13;;;36.53;;
16171;SDS011;8192;53.596;10.166;2024-02-21T00:11:47;49.73;;;36.30;;
16171;SDS011;8192;53.596;10.166;2024-02-21T00:14:14;47.93;;;35.53;;
16171;SDS011;8192;53.596;10.166;2024-02-21T00:16:41;51.60;;;36.23;;
16171;SDS011;8192;53.596;10.166;2024-02-21T00:19:08;54.47;;;38.03;;
16171;SDS011;8192;53.596;10.166;2024-02-21T00:21:35;51.50;;;35.73;;
16171;SDS011;8192;53.596;10.166;2024-02-21T00:24:04;44.27;;;33.03;;
16171;SDS011;8192;53.596;10.166;2024-02-21T00:26:31;56.20;;;36.53;;
16171;SDS011;8192;53.596;10.166;2024-02-21T00:28:58;54.67;;;39.03;;
16171;SDS011;8192;53.596;10.166;2024-02-21T00:31:25;56.43;;;38.77;;
16171;SDS011;8192;53.596;10.166;2024-02-21T00:33:52;58.70;;;39.03;;
16171;SDS011;8192;53.596;10.166;2024-02-21T00:36:18;60.37;;;38.73;;
16171;SDS011;8192;53.596;10.166;2024-02-21T00:38:45;55.93;;;36.30;;
16171;SDS011;8192;53.596;10.166;2024-02-21T00:41:14;58.40;;;39.47;;
16171;SDS011;8192;53.596;10.166;2024-02-21T00:43:41;57.33;;;38.73;;
16171;SDS011;8192;53.596;10.166;2024-02-21T00:46:08;46.47;;;33.53;;
16171;SDS011;8192;53.596;10.166;2024-02-21T00:48:34;58.13;;;40.70;;
16171;SDS011;8192;53.596;10.166;2024-02-21T00:51:02;57.93;;;38.10;;
16171;SDS011;8192;53.596;10.166;2024-02-21T00:53:29;56.87;;;38.40;;
16171;SDS011;8192;53.596;10.166;2024-02-21T00:55:55;50.77;;;38.13;;
16171;SDS011;8192;53.596;10.166;2024-02-21T00:58:24;51.07;;;38.73;;
16171;SDS011;8192;53.596;10.166;2024-02-21T01:00:51;60.70;;;39.87;;
16171;SDS011;8192;53.596;10.166;2024-02-21T01:03:18;61.97;;;39.23;;
16171;SDS011;8192;53.596;10.166;2024-02-21T01:05:45;57.90;;;39.63;;
16171;SDS011;8192;53.596;10.166;2024-02-21T01:08:12;64.97;;;42.97;;
16171;SDS011;8192;53.596;10.166;2024-02-21T01:10:39;54.87;;;38.53;;
16171;SDS011;8192;53.596;10.166;2024-02-21T01:13:06;53.37;;;41.70;;
16171;SDS011;8192;53.596;10.166;2024-02-21T01:15:34;71.93;;;42.73;;
16171;SDS011;8192;53.596;10.166;2024-02-21T01:18:01;58.33;;;38.93;;
16171;SDS011;8192;53.596;10.166;2024-02-21T01:20:30;58.03;;;40.83;;
16171;SDS011;8192;53.596;10.166;2024-02-21T01:22:57;63.20;;;41.93;;
16171;SDS011;8192;53.596;10.166;2024-02-21T01:25:24;62.43;;;40.47;;
16171;SDS011;8192;53.596;10.166;2024-02-21T01:27:50;60.03;;;41.93;;
16171;SDS011;8192;53.596;10.166;2024-02-21T01:30:18;54.27;;;38.83;;
16171;SDS011;8192;53.596;10.166;2024-02-21T01:32:46;58.57;;;43.40;;
16171;SDS011;8192;53.596;10.166;2024-02-21T01:35:13;57.83;;;40.80;;
16171;SDS011;8192;53.596;10.166;2024-02-21T01:37:40;59.50;;;40.90;;
16171;SDS011;8192;53.596;10.166;2024-02-21T01:40:08;54.13;;;41.77;;
16171;SDS011;8192;53.596;10.166;2024-02-21T01:42:37;58.40;;;40.70;;
16171;SDS011;8192;53.596;10.166;2024-02-21T01:45:05;53.40;;;42.43;;
16171;SDS011;8192;53.596;10.166;2024-02-21T01:47:32;64.93;;;42.90;;
16171;SDS011;8192;53.596;10.166;2024-02-21T01:50:01;57.57;;;39.90;;
16171;SDS011;8192;53.596;10.166;2024-02-21T01:52:29;69.70;;;44.57;;
16171;SDS011;8192;53.596;10.166;2024-02-21T01:54:57;58.70;;;42.27;;
16171;SDS011;8192;53.596;10.166;2024-02-21T01:57:24;60.37;;;44.13;;
16171;SDS011;8192;53.596;10.166;2024-02-21T01:59:51;53.57;;;39.77;;
16171;SDS011;8192;53.596;10.166;2024-02-21T02:02:18;60.03;;;41.87;;
16171;SDS011;8192;53.596;10.166;2024-02-21T02:04:45;60.63;;;41.00;;
16171;SDS011;8192;53.596;10.166;2024-02-21T02:07:13;56.97;;;44.17;;
16171;SDS011;8192;53.596;10.166;2024-02-21T02:09:42;65.03;;;45.53;;
16171;SDS011;8192;53.596;10.166;2024-02-21T02:12:09;58.07;;;41.43;;
16171;SDS011;8192;53.596;10.166;2024-02-21T02:14:36;62.10;;;45.83;;
16171;SDS011;8192;53.596;10.166;2024-02-21T02:17:03;62.50;;;47.73;;
16171;SDS011;8192;53.596;10.166;2024-02-21T02:19:30;64.87;;;48.03;;
16171;SDS011;8192;53.596;10.166;2024-02-21T02:21:59;58.33;;;41.90;;
16171;SDS011;8192;53.596;10.166;2024-02-21T02:24:34;64.17;;;47.23;;
16171;SDS011;8192;53.596;10.166;2024-02-21T02:27:01;61.33;;;45.27;;
16171;SDS011;8192;53.596;10.166;2024-02-21T02:29:28;66.80;;;47.77;;
16171;SDS011;8192;53.596;10.166;2024-02-21T02:31:58;69.17;;;48.17;;
16171;SDS011;8192;53.596;10.166;2024-02-21T02:34:24;68.80;;;47.07;;
16171;SDS011;8192;53.596;10.166;2024-02-21T02:36:51;65.63;;;47.53;;
16171;SDS011;8192;53.596;10.166;2024-02-21T02:39:19;69.97;;;47.00;;
16171;SDS011;8192;53.596;10.166;2024-02-21T02:41:48;62.90;;;45.93;;
16171;SDS011;8192;53.596;10.166;2024-02-21T02:44:15;68.13;;;47.00;;
16171;SDS011;8192;53.596;10.166;2024-02-21T02:46:42;65.97;;;44.67;;
16171;SDS011;8192;53.596;10.166;2024-02-21T02:49:09;61.00;;;43.33;;
16171;SDS011;8192;53.596;10.166;2024-02-21T02:51:36;68.10;;;45.70;;
16171;SDS011;8192;53.596;10.166;2024-02-21T02:54:03;66.70;;;46.83;;
16171;SDS011;8192;53.596;10.166;2024-02-21T02:56:30;60.73;;;45.67;;
16171;SDS011;8192;53.596;10.166;2024-02-21T02:58:58;65.33;;;48.23;;
16171;SDS011;8192;53.596;10.166;2024-02-21T03:01:25;71.03;;;47.50;;
16171;SDS011;8192;53.596;10.166;2024-02-21T03:03:52;68.93;;;45.80;;
16171;SDS011;8192;53.596;10.166;2024-02-21T03:06:20;71.33;;;48.40;;
16171;SDS011;8192;53.596;10.166;2024-02-21T03:08:47;61.87;;;42.87;;
16171;SDS011;8192;53.596;10.166;2024-02-21T03:11:13;62.63;;;43.87;;
16171;SDS011;8192;53.596;10.166;2024-02-21T03:13:40;70.03;;;47.47;;
16171;SDS011;8192;53.596;10.166;2024-02-21T03:16:09;69.70;;;46.90;;
16171;SDS011;8192;53.596;10.166;2024-02-21T03:18:36;69.50;;;47.53;;
16171;SDS011;8192;53.596;10.166;2024-02-21T03:21:03;64.97;;;44.63;;
16171;SDS011;8192;53.596;10.166;2024-02-21T03:23:30;50.23;;;37.03;;
16171;SDS011;8192;53.596;10.166;2024-02-21T03:25:57;70.03;;;48.43;;
16171;SDS011;8192;53.596;10.166;2024-02-21T03:28:24;68.47;;;45.77;;
16171;SDS011;8192;53.596;10.166;2024-02-21T03:30:51;73.13;;;47.33;;
16171;SDS011;8192;53.596;10.166;2024-02-21T03:33:19;62.47;;;43.67;;
16171;SDS011;8192;53.596;10.166;2024-02-21T03:35:48;77.13;;;47.17;;
16171;SDS011;8192;53.596;10.166;2024-02-21T03:38:15;67.43;;;44.60;;
16171;SDS011;8192;53.596;10.166;2024-02-21T03:40:42;66.13;;;46.33;;
16171;SDS011;8192;53.596;10.166;2024-02-21T03:43:09;59.53;;;45.60;;
16171;SDS011;8192;53.596;10.166;2024-02-21T03:45:36;63.50;;;45.80;;
16171;SDS011;8192;53.596;10.166;2024-02-21T03:48:03;73.53;;;46.03;;
16171;SDS011;8192;53.596;10.166;2024-02-21T03:50:32;74.90;;;47.30;;
16171;SDS011;8192;53.596;10.166;2024-02-21T03:52:59;66.47;;;46.43;;
16171;SDS011;8192;53.596;10.166;2024-02-21T03:55:26;59.07;;;42.17;;
16171;SDS011;8192;53.596;10.166;2024-02-21T03:57:53;47.47;;;36.87;;
16171;SDS011;8192;53.596;10.166;2024-02-21T04:00:20;60.67;;;44.33;;
16171;SDS011;8192;53.596;10.166;2024-02-21T04:02:48;55.83;;;42.27;;
16171;SDS011;8192;53.596;10.166;2024-02-21T04:05:15;70.03;;;45.37;;
16171;SDS011;8192;53.596;10.166;2024-02-21T04:07:43;55.60;;;39.63;;
16171;SDS011;8192;53.596;10.166;2024-02-21T04:10:10;56.93;;;37.53;;
16171;SDS011;8192;53.596;10.166;2024-02-21T04:12:38;72.13;;;46.73;;
16171;SDS011;8192;53.596;10.166;2024-02-21T04:15:05;64.60;;;42.00;;
16171;SDS011;8192;53.596;10.166;2024-02-21T04:17:32;69.70;;;46.73;;
16171;SDS011;8192;53.596;10.166;2024-02-21T04:20:01;58.60;;;43.03;;
16171;SDS011;8192;53.596;10.166;2024-02-21T04:22:30;62.87;;;44.37;;
16171;SDS011;8192;53.596;10.166;2024-02-21T04:24:59;58.53;;;43.50;;
16171;SDS011;8192;53.596;10.166;2024-02-21T04:27:26;76.40;;;47.63;;
16171;SDS011;8192;53.596;10.166;2024-02-21T04:29:53;72.07;;;46.10;;
16171;SDS011;8192;53.596;10.166;2024-02-21T04:32:20;73.40;;;45.60;;
16171;SDS011;8192;53.596;10.166;2024-02-21T04:34:47;66.10;;;45.30;;
16171;SDS011;8192;53.596;10.166;2024-02-21T04:37:14;70.80;;;46.83;;
16171;SDS011;8192;53.596;10.166;2024-02-21T04:39:41;61.63;;;43.23;;
16171;SDS011;8192;53.596;10.166;2024-02-21T04:42:09;69.93;;;46.57;;
16171;SDS011;8192;53.596;10.166;2024-02-21T04:44:36;66.57;;;45.83;;
16171;SDS011;8192;53.596;10.166;2024-02-21T04:47:03;69.90;;;46.87;;
16171;SDS011;8192;53.596;10.166;2024-02-21T04:49:30;59.93;;;44.07;;
16171;SDS011;8192;53.596;10.166;2024-02-21T04:51:57;59.50;;;43.00;;
16171;SDS011;8192;53.596;10.166;2024-02-21T04:54:24;58.53;;;43.70;;
16171;SDS011;8192;53.596;10.166;2024-02-21T04:56:51;52.70;;;40.73;;
16171;SDS011;8192;53.596;10.166;2024-02-21T04:59:19;52.80;;;41.07;;
16171;SDS011;8192;53.596;10.166;2024-02-21T05:01:46;49.50;;;40.10;;
16171;SDS011;8192;53.596;10.166;2024-02-21T05:04:13;54.63;;;43.17;;
16171;SDS011;8192;53.596;10.166;2024-02-21T05:06:40;63.53;;;45.40;;
16171;SDS011;8192;53.596;10.166;2024-02-21T05:09:08;53.13;;;42.80;;
16171;SDS011;8192;53.596;10.166;2024-02-21T05:11:36;45.93;;;37.67;;
16171;SDS011;8192;53.596;10.166;2024-02-21T05:14:03;48.03;;;38.43;;
16171;SDS011;8192;53.596;10.166;2024-02-21T05:16:32;53.73;;;40.90;;
16171;SDS011;8192;53.596;10.166;2024-02-21T05:19:06;52.20;;;40.37;;
16171;SDS011;8192;53.596;10.166;2024-02-21T05:21:33;53.80;;;39.63;;
16171;SDS011;8192;53.596;10.166;2024-02-21T05:24:00;46.10;;;38.93;;
16171;SDS011;8192;53.596;10.166;2024-02-21T05:26:27;49.87;;;38.73;;
16171;SDS011;8192;53.596;10.166;2024-02-21T05:28:55;47.07;;;41.17;;
16171;SDS011;8192;53.596;10.166;2024-02-21T05:31:22;44.23;;;37.90;;
16171;SDS011;8192;53.596;10.166;2024-02-21T05:33:50;45.93;;;39.10;;
16171;SDS011;8192;53.596;10.166;2024-02-21T05:36:17;36.17;;;32.23;;
16171;SDS011;8192;53.596;10.166;2024-02-21T05:38:44;39.80;;;35.67;;
16171;SDS011;8192;53.596;10.166;2024-02-21T05:41:11;41.53;;;36.53;;
16171;SDS011;8192;53.596;10.166;2024-02-21T05:43:38;43.73;;;37.00;;
16171;SDS011;8192;53.596;10.166;2024-02-21T05:46:06;33.40;;;29.87;;
16171;SDS011;8192;53.596;10.166;2024-02-21T05:48:33;38.27;;;34.23;;
16171;SDS011;8192;53.596;10.166;2024-02-21T05:51:03;38.80;;;33.67;;
16171;SDS011;8192;53.596;10.166;2024-02-21T05:53:30;38.37;;;34.03;;
16171;SDS011;8192;53.596;10.166;2024-02-21T05:55:57;32.53;;;29.20;;
16171;SDS011;8192;53.596;10.166;2024-02-21T05:58:24;33.43;;;30.17;;
16171;SDS011;8192;53.596;10.166;2024-02-21T06:00:50;33.80;;;30.17;;
16171;SDS011;8192;53.596;10.166;2024-02-21T06:03:17;35.37;;;31.70;;
16171;SDS011;8192;53.596;10.166;2024-02-21T06:05:44;33.60;;;30.03;;
16171;SDS011;8192;53.596;10.166;2024-02-21T06:08:13;35.67;;;31.73;;
16171;SDS011;8192;53.596;10.166;2024-02-21T06:10:40;37.10;;;31.03;;
16171;SDS011;8192;53.596;10.166;2024-02-21T06:13:06;31.67;;;28.53;;
16171;SDS011;8192;53.596;10.166;2024-02-21T06:15:34;31.40;;;28.43;;
16171;SDS011;8192;53.596;10.166;2024-02-21T06:18:01;33.03;;;29.73;;
16171;SDS011;8192;53.596;10.166;2024-02-21T06:20:28;30.73;;;27.70;;
16171;SDS011;8192;53.596;10.166;2024-02-21T06:22:55;30.37;;;27.27;;
16171;SDS011;8192;53.596;10.166;2024-02-21T06:25:23;27.77;;;25.23;;
16171;SDS011;8192;53.596;10.166;2024-02-21T06:27:50;29.43;;;26.57;;
16171;SDS011;8192;53.596;10.166;2024-02-21T06:30:17;29.50;;;26.50;;
16171;SDS011;8192;53.596;10.166;2024-02-21T06:32:44;28.33;;;25.87;;
16171;SDS011;8192;53.596;10.166;2024-02-21T06:35:11;26.60;;;24.33;;
16171;SDS011;8192;53.596;10.166;2024-02-21T06:37:38;26.30;;;23.97;;
16171;SDS011;8192;53.596;10.166;2024-02-21T06:40:05;26.13;;;23.83;;
16171;SDS011;8192;53.596;10.166;2024-02-21T06:42:35;25.27;;;23.37;;
16171;SDS011;8192;53.596;10.166;2024-02-21T06:45:02;24.17;;;22.37;;
16171;SDS011;8192;53.596;10.166;2024-02-21T06:47:30;24.27;;;22.27;;
16171;SDS011;8192;53.596;10.166;2024-02-21T06:49:57;25.03;;;23.03;;
16171;SDS011;8192;53.596;10.166;2024-02-21T06:52:24;24.03;;;22.13;;
16171;SDS011;8192;53.596;10.166;2024-02-21T06:54:54;23.03;;;21.13;;
16171;SDS011;8192;53.596;10.166;2024-02-21T06:57:21;23.30;;;21.30;;
16171;SDS011;8192;53.596;10.166;2024-02-21T06:59:49;23.20;;;21.40;;
16171;SDS011;8192;53.596;10.166;2024-02-21T07:02:16;21.63;;;20.03;;
16171;SDS011;8192;53.596;10.166;2024-02-21T07:04:44;23.13;;;21.27;;
16171;SDS011;8192;53.596;10.166;2024-02-21T07:07:11;23.50;;;21.70;;
16171;SDS011;8192;53.596;10.166;2024-02-21T07:09:38;23.80;;;21.80;;
16171;SDS011;8192;53.596;10.166;2024-02-21T07:12:05;24.30;;;22.33;;
16171;SDS011;8192;53.596;10.166;2024-02-21T07:14:32;24.00;;;21.90;;
16171;SDS011;8192;53.596;10.166;2024-02-21T07:17:01;24.43;;;22.43;;
16171;SDS011;8192;53.596;10.166;2024-02-21T07:19:28;24.73;;;22.73;;
16171;SDS011;8192;53.596;10.166;2024-02-21T07:21:55;24.73;;;22.53;;
16171;SDS011;8192;53.596;10.166;2024-02-21T07:24:22;25.10;;;22.80;;
16171;SDS011;8192;53.596;10.166;2024-02-21T07:26:49;24.70;;;22.60;;
16171;SDS011;8192;53.596;10.166;2024-02-21T07:29:16;24.53;;;22.53;;
16171;SDS011;8192;53.596;10.166;2024-02-21T07:31:43;26.57;;;24.30;;
16171;SDS011;8192;53.596;10.166;2024-02-21T07:34:12;26.53;;;24.03;;
16171;SDS011;8192;53.596;10.166;2024-02-21T07:36:40;26.47;;;24.17;;
16171;SDS011;8192;53.596;10.166;2024-02-21T07:39:08;28.40;;;25.80;;
16171;SDS011;8192;53.596;10.166;2024-02-21T07:41:35;27.20;;;24.70;;
16171;SDS011;8192;53.596;10.166;2024-02-21T07:44:03;28.47;;;25.83;;
16171;SDS011;8192;53.596;10.166;2024-02-21T07:46:31;27.90;;;25.40;;
16171;SDS011;8192;53.596;10.166;2024-02-21T07:48:57;26.83;;;24.43;;
16171;SDS011;8192;53.596;10.166;2024-02-21T07:51:28;28.03;;;25.23;;
16171;SDS011;8192;53.596;10.166;2024-02-21T07:53:55;28.60;;;25.80;;
16171;SDS011;8192;53.596;10.166;2024-02-21T07:56:22;27.70;;;25.20;;
16171;SDS011;8192;53.596;10.166;2024-02-21T07:58:49;27.73;;;25.13;;
16171;SDS011;8192;53.596;10.166;2024-02-21T08:01:18;28.03;;;25.37;;
16171;SDS011;8192;53.596;10.166;2024-02-21T08:03:45;28.53;;;25.83;;
16171;SDS011;8192;53.596;10.166;2024-02-21T08:06:13;27.93;;;25.13;;
16171;SDS011;8192;53.596;10.166;2024-02-21T08:08:41;28.73;;;25.93;;
16171;SDS011;8192;53.596;10.166;2024-02-21T08:11:08;26.80;;;24.50;;
16171;SDS011;8192;53.596;10.166;2024-02-21T08:13:35;25.67;;;23.47;;
16171;SDS011;8192;53.596;10.166;2024-02-21T08:16:02;25.73;;;23.50;;
16171;SDS011;8192;53.596;10.166;2024-02-21T08:18:30;26.27;;;23.47;;
16171;SDS011;8192;53.596;10.166;2024-02-21T08:20:56;26.80;;;24.30;;
16171;SDS011;8192;53.596;10.166;2024-02-21T08:23:23;26.20;;;23.80;;
16171;SDS011;8192;53.596;10.166;2024-02-21T08:25:52;25.83;;;23.47;;
16171;SDS011;8192;53.596;10.166;2024-02-21T08:28:19;24.77;;;22.57;;
16171;SDS011;8192;53.596;10.166;2024-02-21T08:30:46;24.27;;;21.90;;
16171;SDS011;8192;53.596;10.166;2024-02-21T08:33:14;25.87;;;23.17;;
16171;SDS011;8192;53.596;10.166;2024-02-21T08:35:41;25.23;;;22.63;;
16171;SDS011;8192;53.596;10.166;2024-02-21T08:38:08;24.50;;;22.20;;
16171;SDS011;8192;53.596;10.166;2024-02-21T08:40:35;24.03;;;21.47;;
16171;SDS011;8192;53.596;10.166;2024-02-21T08:43:05;23.97;;;21.53;;
16171;SDS011;8192;53.596;10.166;2024-02-21T08:45:31;24.30;;;21.63;;
16171;SDS011;8192;53.596;10.166;2024-02-21T08:47:58;26.77;;;21.30;;
16171;SDS011;8192;53.596;10.166;2024-02-21T08:50:25;29.73;;;20.40;;
16171;SDS011;8192;53.596;10.166;2024-02-21T08:52:52;24.23;;;19.57;;
16171;SDS011;8192;53.596;10.166;2024-02-21T08:55:19;37.70;;;20.47;;
16171;SDS011;8192;53.596;10.166;2024-02-21T08:57:46;26.40;;;19.37;;
16171;SDS011;8192;53.596;10.166;2024-02-21T09:00:16;31.23;;;19.60;;
16171;SDS011;8192;53.596;10.166;2024-02-21T09:02:43;33.43;;;20.17;;
16171;SDS011;8192;53.596;10.166;2024-02-21T09:05:10;28.33;;;19.83;;
16171;SDS011;8192;53.596;10.166;2024-02-21T09:07:37;33.13;;;19.67;;
16171;SDS011;8192;53.596;10.166;2024-02-21T09:10:07;32.67;;;19.80;;
16171;SDS011;8192;53.596;10.166;2024-02-21T09:12:35;29.67;;;19.40;;
16171;SDS011;8192;53.596;10.166;2024-02-21T09:15:02;29.10;;;20.10;;
16171;SDS011;8192;53.596;10.166;2024-02-21T09:17:31;30.20;;;20.37;;
16171;SDS011;8192;53.596;10.166;2024-02-21T09:19:57;28.60;;;20.03;;
16171;SDS011;8192;53.596;10.166;2024-02-21T09:22:28;26.63;;;20.17;;
16171;SDS011;8192;53.596;10.166;2024-02-21T09:24:56;22.37;;;19.90;;
16171;SDS011;8192;53.596;10.166;2024-02-21T09:27:23;25.23;;;18.77;;
16171;SDS011;8192;53.596;10.166;2024-02-21T09:29:50;30.90;;;19.93;;
16171;SDS011;8192;53.596;10.166;2024-02-21T09:32:18;30.00;;;20.90;;
16171;SDS011;8192;53.596;10.166;2024-02-21T09:34:46;33.13;;;20.40;;
16171;SDS011;8192;53.596;10.166;2024-02-21T09:37:13;35.10;;;21.50;;
16171;SDS011;8192;53.596;10.166;2024-02-21T09:39:40;40.03;;;21.57;;
16171;SDS011;8192;53.596;10.166;2024-02-21T09:42:07;28.77;;;20.53;;
16171;SDS011;8192;53.596;10.166;2024-02-21T09:44:38;28.93;;;19.60;;
16171;SDS011;8192;53.596;10.166;2024-02-21T09:47:06;31.50;;;20.60;;
16171;SDS011;8192;53.596;10.166;2024-02-21T09:49:37;27.50;;;20.10;;
16171;SDS011;8192;53.596;10.166;2024-02-21T09:52:07;23.70;;;19.80;;
16171;SDS011;8192;53.596;10.166;2024-02-21T09:54:38;27.70;;;19.97;;
16171;SDS011;8192;53.596;10.166;2024-02-21T09:57:09;34.77;;;20.33;;
16171;SDS011;8192;53.596;10.166;2024-02-21T09:59:37;25.93;;;20.17;;
16171;SDS011;8192;53.596;10.166;2024-02-21T10:02:04;23.23;;;19.53;;
16171;SDS011;8192;53.596;10.166;2024-02-21T10:04:31;27.57;;;20.47;;
16171;SDS011;8192;53.596;10.166;2024-02-21T10:06:58;27.27;;;19.83;;
16171;SDS011;8192;53.596;10.166;2024-02-21T10:09:27;21.77;;;19.60;;
16171;SDS011;8192;53.596;10.166;2024-02-21T10:11:54;26.57;;;20.03;;
16171;SDS011;8192;53.596;10.166;2024-02-21T10:14:22;26.83;;;20.90;;
16171;SDS011;8192;53.596;10.166;2024-02-21T10:16:56;24.20;;;20.13;;
16171;SDS011;8192;53.596;10.166;2024-02-21T10:19:23;22.27;;;19.97;;
16171;SDS011;8192;53.596;10.166;2024-02-21T10:22:00;23.63;;;20.03;;
16171;SDS011;8192;53.596;10.166;2024-02-21T10:24:30;25.07;;;20.20;;
16171;SDS011;8192;53.596;10.166;2024-02-21T10:27:04;23.67;;;21.27;;
16171;SDS011;8192;53.596;10.166;2024-02-21T10:29:33;24.67;;;22.10;;
16171;SDS011;8192;53.596;10.166;2024-02-21T10:32:04;24.40;;;22.03;;
16171;SDS011;8192;53.596;10.166;2024-02-21T10:34:32;24.70;;;22.13;;
16171;SDS011;8192;53.596;10.166;2024-02-21T10:37:00;24.93;;;22.53;;
16171;SDS011;8192;53.596;10.166;2024-02-21T10:39:30;26.17;;;23.43;;
16171;SDS011;8192;53.596;10.166;2024-02-21T10:41:59;26.83;;;24.13;;
16171;SDS011;8192;53.596;10.166;2024-02-21T10:44:29;28.17;;;25.47;;
16171;SDS011;8192;53.596;10.166;2024-02-21T10:46:57;32.13;;;28.07;;
16171;SDS011;8192;53.596;10.166;2024-02-21T10:49:26;31.23;;;27.87;;
16171;SDS011;8192;53.596;10.166;2024-02-21T10:51:58;32.17;;;28.20;;
16171;SDS011;8192;53.596;10.166;2024-02-21T10:54:42;37.13;;;30.97;;
16171;SDS011;8192;53.596;10.166;2024-02-21T10:57:11;36.10;;;31.53;;
16171;SDS011;8192;53.596;10.166;2024-02-21T10:59:40;40.33;;;32.10;;
16171;SDS011;8192;53.596;10.166;2024-02-21T11:02:07;43.47;;;32.77;;
16171;SDS011;8192;53.596;10.166;2024-02-21T11:04:34;38.20;;;33.60;;
16171;SDS011;8192;53.596;10.166;2024-02-21T11:07:02;44.13;;;35.80;;
16171;SDS011;8192;53.596;10.166;2024-02-21T11:09:31;51.70;;;35.60;;
16171;SDS011;8192;53.596;10.166;2024-02-21T11:12:01;49.03;;;35.57;;
16171;SDS011;8192;53.596;10.166;2024-02-21T11:14:30;51.37;;;36.77;;
16171;SDS011;8192;53.596;10.166;2024-02-21T11:17:01;44.83;;;35.47;;
16171;SDS011;8192;53.596;10.166;2024-02-21T11:19:29;45.07;;;35.27;;
16171;SDS011;8192;53.596;10.166;2024-02-21T11:21:56;48.20;;;35.17;;
16171;SDS011;8192;53.596;10.166;2024-02-21T11:24:27;48.57;;;35.53;;
16171;SDS011;8192;53.596;10.166;2024-02-21T11:26:55;49.53;;;35.57;;
16171;SDS011;8192;53.596;10.166;2024-02-21T11:29:28;44.03;;;31.13;;
16171;SDS011;8192;53.596;10.166;2024-02-21T11:31:56;42.83;;;32.77;;
16171;SDS011;8192;53.596;10.166;2024-02-21T11:34:23;46.37;;;34.27;;
16171;SDS011;8192;53.596;10.166;2024-02-21T11:36:59;42.87;;;33.30;;
16171;SDS011;8192;53.596;10.166;2024-02-21T11:39:26;45.97;;;33.13;;
16171;SDS011;8192;53.596;10.166;2024-02-21T11:42:00;54.67;;;33.80;;
16171;SDS011;8192;53.596;10.166;2024-02-21T11:44:29;42.83;;;33.00;;
16171;SDS011;8192;53.596;10.166;2024-02-21T11:46:56;42.00;;;32.07;;
16171;SDS011;8192;53.596;10.166;2024-02-21T11:49:28;40.90;;;30.83;;
16171;SDS011;8192;53.596;10.166;2024-02-21T11:51:58;37.97;;;30.87;;
16171;SDS011;8192;53.596;10.166;2024-02-21T11:54:27;35.47;;;29.73;;
16171;SDS011;8192;53.596;10.166;2024-02-21T11:56:54;40.80;;;30.83;;
16171;SDS011;8192;53.596;10.166;2024-02-21T11:59:20;39.33;;;30.23;;
16171;SDS011;8192;53.596;10.166;2024-02-21T12:01:49;42.20;;;30.97;;
16171;SDS011;8192;53.596;10.166;2024-02-21T12:04:17;34.67;;;30.03;;
16171;SDS011;8192;53.596;10.166;2024-02-21T12:06:49;33.07;;;29.53;;
16171;SDS011;8192;53.596;10.166;2024-02-21T12:09:16;39.27;;;30.53;;
16171;SDS011;8192;53.596;10.166;2024-02-21T12:11:43;37.73;;;29.40;;
16171;SDS011;8192;53.596;10.166;2024-02-21T12:14:09;31.40;;;28.10;;
16171;SDS011;8192;53.596;10.166;2024-02-21T12:16:36;34.30;;;28.93;;
16171;SDS011;8192;53.596;10.166;2024-02-21T12:19:05;35.33;;;30.17;;
16171;SDS011;8192;53.596;10.166;2024-02-21T12:21:34;34.67;;;29.43;;
16171;SDS011;8192;53.596;10.166;2024-02-21T12:24:11;37.87;;;30.10;;
16171;SDS011;8192;53.596;10.166;2024-02-21T12:26:38;32.30;;;28.37;;
16171;SDS011;8192;53.596;10.166;2024-02-21T12:29:05;34.27;;;28.53;;
16171;SDS011;8192;53.596;10.166;2024-02-21T12:31:34;37.60;;;28.50;;
16171;SDS011;8192;53.596;10.166;2024-02-21T12:34:01;34.97;;;28.63;;
16171;SDS011;8192;53.596;10.166;2024-02-21T12:36:30;29.53;;;26.03;;
16171;SDS011;8192;53.596;10.166;2024-02-21T12:38:57;36.70;;;28.10;;
16171;SDS011;8192;53.596;10.166;2024-02-21T12:41:25;33.17;;;27.43;;
16171;SDS011;8192;53.596;10.166;2024-02-21T12:43:52;30.40;;;26.60;;
16171;SDS011;8192;53.596;10.166;2024-02-21T12:46:19;38.50;;;28.37;;
16171;SDS011;8192;53.596;10.166;2024-02-21T12:48:46;34.33;;;28.47;;
16171;SDS011;8192;53.596;10.166;2024-02-21T12:51:13;36.50;;;28.60;;
16171;SDS011;8192;53.596;10.166;2024-02-21T12:53:42;34.57;;;29.10;;
16171;SDS011;8192;53.596;10.166;2024-02-21T12:56:09;34.50;;;29.50;;
16171;SDS011;8192;53.596;10.166;2024-02-21T12:58:36;38.90;;;29.80;;
16171;SDS011;8192;53.596;10.166;2024-02-21T13:01:03;37.30;;;30.30;;
16171;SDS011;8192;53.596;10.166;2024-02-21T13:03:30;38.70;;;31.17;;
16171;SDS011;8192;53.596;10.166;2024-02-21T13:05:57;37.87;;;30.83;;
16171;SDS011;8192;53.596;10.166;2024-02-21T13:08:24;45.03;;;31.80;;
16171;SDS011;8192;53.596;10.166;2024-02-21T13:10:53;40.93;;;31.80;;
16171;SDS011;8192;53.596;10.166;2024-02-21T13:13:20;37.87;;;32.07;;
16171;SDS011;8192;53.596;10.166;2024-02-21T13:15:47;43.40;;;33.00;;
16171;SDS011;8192;53.596;10.166;2024-02-21T13:18:14;44.23;;;31.77;;
16171;SDS011;8192;53.596;10.166;2024-02-21T13:20:40;40.33;;;31.37;;
16171;SDS011;8192;53.596;10.166;2024-02-21T13:23:08;44.63;;;33.07;;
16171;SDS011;8192;53.596;10.166;2024-02-21T13:25:34;40.70;;;30.77;;
16171;SDS011;8192;53.596;10.166;2024-02-21T13:28:03;38.33;;;30.67;;
16171;SDS011;8192;53.596;10.166;2024-02-21T13:30:30;35.57;;;30.97;;
16171;SDS011;8192;53.596;10.166;2024-02-21T13:32:57;43.00;;;31.13;;
16171;SDS011;8192;53.596;10.166;2024-02-21T13:35:24;36.97;;;29.90;;
16171;SDS011;8192;53.596;10.166;2024-02-21T13:37:51;36.93;;;30.73;;
16171;SDS011;8192;53.596;10.166;2024-02-21T13:40:18;38.10;;;30.63;;
16171;SDS011;8192;53.596;10.166;2024-02-21T13:42:45;39.93;;;30.13;;
16171;SDS011;8192;53.596;10.166;2024-02-21T13:45:13;36.17;;;29.57;;
16171;SDS011;8192;53.596;10.166;2024-02-21T13:47:40;37.92;;;29.45;;
16171;SDS011;8192;53.596;10.166;2024-02-21T13:50:07;39.57;;;29.90;;
16171;SDS011;8192;53.596;10.166;2024-02-21T13:52:35;38.07;;;30.80;;
16171;SDS011;8192;53.596;10.166;2024-02-21T13:55:02;39.70;;;31.50;;
16171;SDS011;8192;53.596;10.166;2024-02-21T13:57:33;36.17;;;29.73;;
16171;SDS011;8192;53.596;10.166;2024-02-21T14:00:00;36.23;;;29.50;;
16171;SDS011;8192;53.596;10.166;2024-02-21T14:02:30;36.73;;;29.23;;
16171;SDS011;8192;53.596;10.166;2024-02-21T14:04:57;39.00;;;29.20;;
16171;SDS011;8192;53.596;10.166;2024-02-21T14:07:24;36.22;;;29.33;;
16171;SDS011;8192;53.596;10.166;2024-02-21T14:09:50;37.03;;;31.77;;
16171;SDS011;8192;53.596;10.166;2024-02-21T14:12:17;38.67;;;30.47;;
16171;SDS011;8192;53.596;10.166;2024-02-21T14:14:46;33.00;;;29.27;;
16171;SDS011;8192;53.596;10.166;2024-02-21T14:17:13;33.93;;;29.50;;
16171;SDS011;8192;53.596;10.166;2024-02-21T14:19:42;36.63;;;30.63;;
16171;SDS011;8192;53.596;10.166;2024-02-21T14:22:09;38.80;;;29.85;;
16171;SDS011;8192;53.596;10.166;2024-02-21T14:24:37;42.83;;;29.98;;